createdAt,value
2022-09-17T00:01:29.071Z,7.97
2022-09-17T00:04:03.688Z,9.18
2022-09-17T00:06:33.609Z,9.13
2022-09-17T00:09:01.126Z,8.65
2022-09-17T00:11:34.466Z,10.00
2022-09-17T00:14:04.384Z,11.75
2022-09-17T00:16:37.519Z,12.70
2022-09-17T00:19:07.608Z,10.30
2022-09-17T00:21:34.902Z,9.35
2022-09-17T00:24:05.262Z,9.05
2022-09-17T00:26:34.125Z,7.97
2022-09-17T00:31:30.085Z,7.95
2022-09-17T00:36:28.009Z,7.03
2022-09-17T00:38:58.841Z,7.70
2022-09-17T00:41:31.011Z,6.53
2022-09-17T00:44:02.400Z,5.55
2022-09-17T00:46:43.861Z,7.45
2022-09-17T00:49:18.637Z,7.55
2022-09-17T00:52:00.330Z,8.02
2022-09-17T00:54:28.504Z,6.13
2022-09-17T00:56:57.021Z,7.00
2022-09-17T00:59:25.722Z,5.93
2022-09-17T01:01:52.983Z,6.45
2022-09-17T01:04:26.469Z,5.68
2022-09-17T01:07:19.786Z,5.57
2022-09-17T01:10:23.905Z,5.68
2022-09-17T01:13:12.163Z,5.97
2022-09-17T01:16:06.526Z,6.70
2022-09-17T01:19:46.303Z,5.82
2022-09-17T01:22:53.463Z,6.88
2022-09-17T01:25:22.394Z,6.90
2022-09-17T01:30:42.598Z,6.07
2022-09-17T01:33:37.775Z,5.40
2022-09-17T01:36:42.704Z,4.72
2022-09-17T01:39:37.134Z,5.38
2022-09-17T01:42:15.323Z,3.85
2022-09-17T01:45:08.604Z,4.68
2022-09-17T01:47:43.534Z,4.35
2022-09-17T01:50:19.362Z,4.93
2022-09-17T01:52:49.816Z,3.20
2022-09-17T01:55:19.085Z,3.60
2022-09-17T01:58:28.969Z,3.72
2022-09-17T02:01:05.793Z,2.53
2022-09-17T02:04:04.661Z,2.53
2022-09-17T02:06:39.621Z,2.67
2022-09-17T02:09:21.967Z,2.40
2022-09-17T02:11:59.733Z,3.28
2022-09-17T02:14:47.568Z,1.83
2022-09-17T02:18:02.689Z,3.30
2022-09-17T02:20:50.123Z,2.63
2022-09-17T02:23:27.141Z,2.50
2022-09-17T02:26:11.227Z,2.58
2022-09-17T02:28:54.622Z,2.95
2022-09-17T02:31:22.285Z,2.17
2022-09-17T02:33:54.932Z,2.05
2022-09-17T02:36:23.170Z,3.42
2022-09-17T02:39:00.760Z,3.78
2022-09-17T02:41:53.240Z,6.28
2022-09-17T02:44:31.024Z,7.65
2022-09-17T02:47:29.577Z,7.65
2022-09-17T02:50:24.058Z,8.25
2022-09-17T02:53:45.190Z,9.05
2022-09-17T02:57:12.323Z,9.85
2022-09-17T02:59:58.349Z,10.52
2022-09-17T03:02:36.733Z,16.20
2022-09-17T03:05:07.462Z,14.10
2022-09-17T03:07:35.059Z,8.57
2022-09-17T03:10:02.453Z,6.90
2022-09-17T03:12:29.760Z,5.57
2022-09-17T03:14:56.946Z,4.93
2022-09-17T03:17:24.122Z,4.63
2022-09-17T03:19:51.192Z,4.28
2022-09-17T03:22:18.289Z,4.50
2022-09-17T03:24:45.312Z,4.00
2022-09-17T03:27:12.455Z,4.00
2022-09-17T03:29:39.782Z,5.60
2022-09-17T03:32:07.965Z,5.10
2022-09-17T03:34:35.199Z,4.85
2022-09-17T03:37:02.297Z,4.10
2022-09-17T03:39:29.914Z,6.55
2022-09-17T03:41:57.098Z,2.92
2022-09-17T03:44:24.205Z,3.17
2022-09-17T03:46:51.401Z,3.15
2022-09-17T03:49:18.560Z,3.42
2022-09-17T03:51:45.793Z,3.13
2022-09-17T03:54:12.829Z,4.60
2022-09-17T03:56:39.947Z,3.22
2022-09-17T03:59:07.000Z,1.90
2022-09-17T04:01:34.158Z,2.95
2022-09-17T04:04:02.632Z,2.63
2022-09-17T04:06:29.878Z,3.22
2022-09-17T04:08:56.963Z,3.13
2022-09-17T04:11:24.015Z,3.15
2022-09-17T04:13:51.067Z,3.25
2022-09-17T04:16:18.274Z,3.25
2022-09-17T04:18:45.420Z,3.40
2022-09-17T04:21:12.531Z,4.10
2022-09-17T04:23:39.704Z,3.53
2022-09-17T04:26:06.824Z,2.92
2022-09-17T04:28:34.065Z,3.60
2022-09-17T04:31:01.140Z,2.38
2022-09-17T04:33:28.265Z,3.13
2022-09-17T04:35:55.322Z,3.20
2022-09-17T04:38:22.461Z,2.20
2022-09-17T04:40:50.890Z,2.42
2022-09-17T04:43:17.978Z,2.72
2022-09-17T04:45:46.894Z,4.25
2022-09-17T04:50:41.094Z,2.80
2022-09-17T04:53:08.314Z,2.65
2022-09-17T04:55:35.496Z,3.30
2022-09-17T04:58:02.744Z,4.72
2022-09-17T05:00:30.337Z,4.50
2022-09-17T05:02:57.361Z,3.88
2022-09-17T05:05:25.561Z,4.20
2022-09-17T05:07:52.810Z,4.38
2022-09-17T05:10:22.039Z,4.50
2022-09-17T05:12:54.362Z,4.10
2022-09-17T05:15:23.909Z,3.83
2022-09-17T05:17:51.380Z,2.97
2022-09-17T05:20:19.249Z,3.05
2022-09-17T05:22:51.625Z,1.90
2022-09-17T05:25:23.876Z,2.20
2022-09-17T05:27:52.869Z,2.40
2022-09-17T05:30:20.452Z,4.70
2022-09-17T05:32:48.088Z,5.67
2022-09-17T05:35:15.480Z,7.50
2022-09-17T05:37:42.612Z,6.50
2022-09-17T05:40:10.400Z,5.47
2022-09-17T05:42:38.175Z,2.45
2022-09-17T05:45:06.720Z,2.05
2022-09-17T05:47:34.803Z,2.25
2022-09-17T05:52:29.661Z,2.27
2022-09-17T05:54:56.837Z,2.05
2022-09-17T05:57:24.391Z,2.15
2022-09-17T05:59:51.424Z,1.87
2022-09-17T06:02:18.584Z,2.67
2022-09-17T06:04:45.980Z,2.42
2022-09-17T06:07:13.061Z,2.72
2022-09-17T06:09:40.421Z,3.30
2022-09-17T06:12:08.062Z,3.47
2022-09-17T06:14:35.109Z,3.85
2022-09-17T06:17:02.497Z,4.03
2022-09-17T06:19:29.568Z,4.83
2022-09-17T06:21:56.692Z,4.65
2022-09-17T06:24:23.870Z,7.45
2022-09-17T06:26:52.026Z,7.23
2022-09-17T06:29:20.450Z,6.65
2022-09-17T06:31:48.767Z,6.10
2022-09-17T06:34:17.148Z,5.82
2022-09-17T06:36:44.219Z,6.10
2022-09-17T06:39:11.759Z,6.07
2022-09-17T06:41:41.670Z,6.47
2022-09-17T06:44:08.843Z,6.55
2022-09-17T06:46:36.332Z,7.32
2022-09-17T06:49:03.712Z,9.10
2022-09-17T06:51:30.807Z,12.77
2022-09-17T06:53:57.972Z,16.48
2022-09-17T06:56:25.085Z,22.93
2022-09-17T06:58:53.324Z,21.13
2022-09-17T07:03:49.120Z,6.38
2022-09-17T07:06:16.366Z,17.08
2022-09-17T07:08:43.730Z,15.10
2022-09-17T07:11:11.018Z,26.73
2022-09-17T07:13:38.318Z,12.38
2022-09-17T07:16:06.194Z,9.88
2022-09-17T07:18:33.469Z,11.55
2022-09-17T07:21:03.629Z,7.63
2022-09-17T07:23:34.272Z,5.75
2022-09-17T07:26:11.660Z,9.15
2022-09-17T07:28:39.950Z,16.67
2022-09-17T07:31:11.242Z,7.63
2022-09-17T07:33:41.766Z,12.65
2022-09-17T07:36:14.205Z,14.02
2022-09-17T07:38:41.397Z,10.57
2022-09-17T07:41:14.981Z,21.58
2022-09-17T07:43:43.866Z,22.98
2022-09-17T07:46:19.619Z,12.43
2022-09-17T07:48:48.561Z,15.30
2022-09-17T07:51:24.407Z,21.58
2022-09-17T07:53:53.102Z,18.60
2022-09-17T07:56:21.311Z,16.75
2022-09-17T07:58:48.588Z,23.50
2022-09-17T08:01:17.591Z,18.17
2022-09-17T08:03:52.330Z,17.88
2022-09-17T08:06:25.396Z,19.05
2022-09-17T08:08:52.643Z,16.13
2022-09-17T08:11:44.789Z,15.85
2022-09-17T08:14:13.924Z,13.55
2022-09-17T08:16:41.538Z,10.75
2022-09-17T08:19:10.234Z,8.13
2022-09-17T08:21:37.566Z,6.57
2022-09-17T08:24:04.921Z,6.03
2022-09-17T08:26:32.132Z,6.50
2022-09-17T08:28:59.526Z,6.18
2022-09-17T08:31:29.676Z,5.22
2022-09-17T08:33:57.228Z,5.47
2022-09-17T08:36:25.599Z,5.43
2022-09-17T08:38:54.227Z,5.03
2022-09-17T08:41:39.528Z,6.55
2022-09-17T08:44:21.215Z,4.43
2022-09-17T08:46:53.093Z,5.28
2022-09-17T08:49:54.087Z,3.33
2022-09-17T08:53:01.541Z,5.00
2022-09-17T08:55:50.928Z,3.33
2022-09-17T08:58:39.537Z,4.53
2022-09-17T09:01:15.537Z,4.20
2022-09-17T09:04:30.624Z,3.85
2022-09-17T09:07:08.296Z,3.50
2022-09-17T09:09:43.288Z,3.70
2022-09-17T09:12:25.993Z,6.28
2022-09-17T09:15:21.955Z,4.75
2022-09-17T09:17:50.833Z,4.40
2022-09-17T09:20:32.016Z,4.22
2022-09-17T09:23:36.871Z,3.88
2022-09-17T09:26:18.867Z,4.57
2022-09-17T09:29:28.937Z,2.92
2022-09-17T09:32:28.525Z,2.67
2022-09-17T09:34:58.070Z,2.10
2022-09-17T09:37:28.336Z,2.45
2022-09-17T09:40:18.491Z,2.60
2022-09-17T09:42:46.809Z,2.08
2022-09-17T09:48:43.744Z,2.35
2022-09-17T09:51:46.692Z,2.65
2022-09-17T09:55:07.564Z,1.98
2022-09-17T09:57:51.605Z,2.03
2022-09-17T10:00:27.382Z,2.92
2022-09-17T10:03:22.974Z,2.40
2022-09-17T10:06:10.176Z,2.10
2022-09-17T10:08:54.809Z,2.92
2022-09-17T10:11:28.878Z,2.35
2022-09-17T10:14:26.169Z,1.83
2022-09-17T10:17:16.499Z,2.00
2022-09-17T10:19:45.308Z,2.45
2022-09-17T10:22:34.997Z,1.35
2022-09-17T10:25:05.230Z,0.80
2022-09-17T10:27:33.433Z,1.35
2022-09-17T10:32:42.335Z,1.08
2022-09-17T10:35:15.380Z,0.63
2022-09-17T10:37:49.798Z,1.17
2022-09-17T10:40:20.037Z,2.60
2022-09-17T10:42:50.041Z,1.63
2022-09-17T10:45:31.690Z,0.65
2022-09-17T10:48:00.178Z,1.48
2022-09-17T10:50:32.289Z,1.30
2022-09-17T10:53:06.737Z,1.30
2022-09-17T10:55:49.416Z,0.70
2022-09-17T10:58:28.217Z,1.70
2022-09-17T11:01:22.796Z,1.23
2022-09-17T11:04:11.950Z,2.25
2022-09-17T11:07:16.119Z,1.80
2022-09-17T11:09:55.169Z,0.98
2022-09-17T11:12:45.643Z,1.55
2022-09-17T11:15:27.613Z,0.93
2022-09-17T11:18:13.011Z,1.15
2022-09-17T11:21:14.069Z,2.17
2022-09-17T11:24:15.297Z,0.88
2022-09-17T11:27:10.836Z,1.23
2022-09-17T11:30:15.317Z,0.88
2022-09-17T11:32:50.128Z,0.73
2022-09-17T11:35:40.316Z,0.88
2022-09-17T11:38:42.698Z,3.00
2022-09-17T11:41:22.322Z,0.35
2022-09-17T11:44:06.196Z,0.75
2022-09-17T11:46:43.782Z,0.50
2022-09-17T11:49:24.855Z,1.88
2022-09-17T11:52:11.197Z,0.82
2022-09-17T11:55:01.448Z,0.40
2022-09-17T11:57:38.272Z,1.25
2022-09-17T12:00:19.654Z,0.75
2022-09-17T12:02:56.657Z,0.70
2022-09-17T12:05:37.301Z,0.45
2022-09-17T12:08:14.825Z,0.70
2022-09-17T12:10:57.611Z,0.73
2022-09-17T12:13:48.675Z,1.05
2022-09-17T12:16:27.118Z,0.98
2022-09-17T12:19:16.698Z,2.15
2022-09-17T12:21:54.392Z,2.25
2022-09-17T12:24:26.808Z,1.58
2022-09-17T12:27:06.127Z,2.42
2022-09-17T12:29:43.549Z,1.63
2022-09-17T12:32:49.667Z,1.92
2022-09-17T12:35:59.782Z,1.98
2022-09-17T12:38:47.528Z,1.95
2022-09-17T12:41:32.044Z,2.15
2022-09-17T12:44:55.689Z,2.35
2022-09-17T12:47:55.321Z,2.88
2022-09-17T12:50:50.225Z,3.58
2022-09-17T12:53:35.278Z,2.92
2022-09-17T12:56:10.857Z,3.30
2022-09-17T12:59:00.075Z,4.00
2022-09-17T13:01:48.881Z,2.00
2022-09-17T13:05:01.024Z,2.13
2022-09-17T13:07:40.827Z,1.90
2022-09-17T13:10:41.552Z,1.00
2022-09-17T13:13:47.197Z,1.17
2022-09-17T13:16:48.252Z,1.20
2022-09-17T13:19:27.081Z,1.55
2022-09-17T13:22:02.322Z,1.42
2022-09-17T13:24:30.621Z,2.33
2022-09-17T13:27:00.634Z,1.35
2022-09-17T13:29:46.026Z,2.25
2022-09-17T13:32:32.034Z,1.95
2022-09-17T13:35:11.063Z,1.33
2022-09-17T13:37:48.251Z,1.85
2022-09-17T13:40:35.868Z,1.08
2022-09-17T13:43:23.115Z,1.87
2022-09-17T13:45:59.156Z,1.00
2022-09-17T13:48:34.799Z,2.08
2022-09-17T13:51:29.794Z,1.20
2022-09-17T13:54:00.612Z,1.85
2022-09-17T13:57:07.388Z,2.38
2022-09-17T13:59:36.238Z,4.72
2022-09-17T14:02:31.565Z,3.22
2022-09-17T14:05:33.382Z,4.00
2022-09-17T14:08:27.158Z,5.97
2022-09-17T14:10:55.994Z,5.60
2022-09-17T14:13:35.057Z,6.93
2022-09-17T14:16:02.653Z,6.75
2022-09-17T14:18:35.123Z,6.50
2022-09-17T14:21:14.409Z,4.30
2022-09-17T14:23:52.445Z,2.53
2022-09-17T14:26:57.101Z,4.50
2022-09-17T14:29:58.010Z,5.93
2022-09-17T14:32:52.913Z,8.40
2022-09-17T14:35:25.634Z,8.85
2022-09-17T14:38:16.864Z,8.30
2022-09-17T14:40:48.771Z,9.68
2022-09-17T14:43:56.310Z,10.77
2022-09-17T14:46:48.895Z,11.23
2022-09-17T14:49:26.712Z,7.60
2022-09-17T14:51:58.303Z,11.43
2022-09-17T14:54:35.157Z,12.60
2022-09-17T14:57:27.126Z,11.52
2022-09-17T14:59:58.976Z,6.55
2022-09-17T15:02:37.127Z,10.45
2022-09-17T15:05:27.612Z,6.95
2022-09-17T15:08:14.905Z,7.22
2022-09-17T15:10:48.400Z,8.82
2022-09-17T15:13:41.368Z,8.10
2022-09-17T15:16:23.284Z,10.55
2022-09-17T15:18:55.453Z,7.47
2022-09-17T15:21:39.128Z,8.20
2022-09-17T15:24:18.539Z,7.88
2022-09-17T15:26:51.327Z,5.45
2022-09-17T15:29:24.457Z,5.65
2022-09-17T15:31:51.974Z,3.67
2022-09-17T15:34:19.251Z,3.28
2022-09-17T15:37:27.675Z,15.07
2022-09-17T15:42:29.551Z,7.28
2022-09-17T15:45:27.104Z,5.18
2022-09-17T15:48:02.007Z,3.53
2022-09-17T15:50:35.682Z,3.35
2022-09-17T15:53:08.827Z,3.20
2022-09-17T15:55:45.236Z,3.90
2022-09-17T15:58:35.547Z,3.90
2022-09-17T16:01:14.587Z,22.98
2022-09-17T16:03:42.827Z,3.92
2022-09-17T16:06:19.083Z,3.40
2022-09-17T16:08:57.081Z,3.38
2022-09-17T16:11:31.785Z,1.77
2022-09-17T16:14:00.538Z,2.50
2022-09-17T16:19:00.949Z,2.58
2022-09-17T16:21:28.451Z,1.88
2022-09-17T16:23:57.454Z,2.08
2022-09-17T16:26:33.093Z,3.20
2022-09-17T16:29:15.489Z,2.88
2022-09-17T16:31:44.068Z,2.55
2022-09-17T16:34:11.200Z,2.65
2022-09-17T16:36:38.691Z,3.28
2022-09-17T16:39:05.774Z,3.13
2022-09-17T16:41:32.905Z,6.10
2022-09-17T16:44:00.221Z,4.72
2022-09-17T16:46:27.425Z,6.05
2022-09-17T16:48:54.672Z,4.00
2022-09-17T16:51:21.811Z,3.80
2022-09-17T16:53:49.581Z,2.92
2022-09-17T16:56:16.828Z,2.60
2022-09-17T16:58:43.900Z,5.05
2022-09-17T17:01:14.462Z,5.32
2022-09-17T17:03:42.310Z,5.60
2022-09-17T17:06:18.046Z,5.07
2022-09-17T17:08:45.139Z,5.05
2022-09-17T17:11:12.648Z,3.20
2022-09-17T17:13:42.297Z,2.90
2022-09-17T17:16:13.522Z,2.33
2022-09-17T17:18:44.657Z,2.42
2022-09-17T17:21:13.764Z,1.80
2022-09-17T17:23:43.138Z,1.90
2022-09-17T17:26:10.325Z,4.03
2022-09-17T17:28:37.661Z,4.25
2022-09-17T17:31:05.364Z,2.42
2022-09-17T17:33:33.663Z,1.77
2022-09-17T17:36:07.514Z,2.15
2022-09-17T17:38:36.388Z,2.88
2022-09-17T17:41:14.667Z,2.20
2022-09-17T17:43:42.071Z,2.78
2022-09-17T17:46:11.496Z,3.35
2022-09-17T17:48:38.827Z,3.20
2022-09-17T17:51:08.601Z,2.42
2022-09-17T17:53:36.255Z,1.60
2022-09-17T17:56:06.886Z,1.40
2022-09-17T17:58:35.455Z,1.25
2022-09-17T18:01:35.308Z,0.98
2022-09-17T18:04:07.150Z,0.90
2022-09-17T18:06:34.514Z,0.80
2022-09-17T18:09:02.907Z,1.27
2022-09-17T18:11:30.914Z,1.35
2022-09-17T18:14:00.270Z,1.13
2022-09-17T18:16:28.797Z,0.82
2022-09-17T18:19:00.197Z,1.05
2022-09-17T18:21:27.645Z,1.40
2022-09-17T18:23:54.921Z,1.30
2022-09-17T18:26:26.063Z,0.82
2022-09-17T18:28:54.025Z,0.68
2022-09-17T18:31:33.986Z,1.63
2022-09-17T18:34:12.005Z,1.08
2022-09-17T18:36:40.200Z,0.67
2022-09-17T18:41:59.477Z,1.70
2022-09-17T18:44:26.591Z,1.40
2022-09-17T18:46:53.815Z,0.65
2022-09-17T18:49:21.280Z,0.52
2022-09-17T18:51:48.459Z,0.40
2022-09-17T18:54:15.664Z,1.20
2022-09-17T18:56:42.735Z,0.70
2022-09-17T18:59:10.376Z,1.30
2022-09-17T19:01:37.779Z,0.60
2022-09-17T19:04:06.923Z,1.38
2022-09-17T19:06:34.394Z,0.77
2022-09-17T19:09:03.617Z,1.67
2022-09-17T19:11:30.669Z,0.80
2022-09-17T19:13:57.916Z,1.00
2022-09-17T19:16:25.341Z,1.33
2022-09-17T19:18:52.544Z,1.33
2022-09-17T19:21:21.013Z,1.08
2022-09-17T19:23:50.571Z,1.55
2022-09-17T19:26:26.760Z,0.68
2022-09-17T19:28:58.199Z,0.30
2022-09-17T19:31:27.435Z,0.35
2022-09-17T19:33:55.934Z,1.23
2022-09-17T19:36:23.072Z,0.88
2022-09-17T19:38:50.181Z,0.75
2022-09-17T19:41:23.346Z,0.20
2022-09-17T19:43:52.138Z,0.50
2022-09-17T19:46:23.419Z,0.47
2022-09-17T19:48:56.549Z,1.42
2022-09-17T19:51:26.046Z,0.80
2022-09-17T19:53:53.321Z,0.70
2022-09-17T19:56:23.697Z,0.85
2022-09-17T19:58:51.502Z,0.30
2022-09-17T20:01:19.507Z,0.55
2022-09-17T20:03:47.087Z,0.50
2022-09-17T20:06:17.779Z,1.05
2022-09-17T20:09:03.888Z,0.80
2022-09-17T20:11:32.143Z,1.83
2022-09-17T20:14:05.932Z,2.40
2022-09-17T20:16:35.138Z,1.25
2022-09-17T20:19:02.798Z,1.00
2022-09-17T20:21:30.492Z,0.70
2022-09-17T20:23:58.068Z,0.60
2022-09-17T20:26:26.680Z,0.90
2022-09-17T20:28:54.737Z,0.50
2022-09-17T20:31:28.247Z,0.50
2022-09-17T20:34:01.140Z,1.42
2022-09-17T20:36:35.732Z,1.50
2022-09-17T20:39:19.447Z,0.38
2022-09-17T20:41:49.355Z,0.52
2022-09-17T20:44:17.214Z,1.52
2022-09-17T20:46:44.316Z,0.85
2022-09-17T20:49:11.422Z,1.60
2022-09-17T20:51:38.523Z,0.68
2022-09-17T20:54:08.027Z,0.60
2022-09-17T20:56:35.391Z,0.55
2022-09-17T20:59:14.459Z,0.95
2022-09-17T21:01:45.779Z,0.80
2022-09-17T21:04:18.371Z,0.65
2022-09-17T21:06:47.184Z,0.47
2022-09-17T21:11:47.436Z,0.30
2022-09-17T21:14:15.119Z,1.20
2022-09-17T21:16:42.922Z,1.15
2022-09-17T21:19:12.428Z,1.27
2022-09-17T21:21:39.941Z,0.50
2022-09-17T21:24:09.420Z,0.70
2022-09-17T21:26:36.815Z,0.73
2022-09-17T21:29:04.295Z,0.77
2022-09-17T21:31:36.092Z,0.90
2022-09-17T21:34:06.840Z,0.70
2022-09-17T21:36:37.143Z,0.60
2022-09-17T21:39:11.510Z,0.65
2022-09-17T21:41:42.301Z,0.88
2022-09-17T21:44:11.778Z,3.15
2022-09-17T21:49:07.515Z,0.63
2022-09-17T21:51:42.532Z,0.57
2022-09-17T21:54:13.265Z,0.55
2022-09-17T21:56:40.591Z,0.73
2022-09-17T21:59:11.479Z,0.75
2022-09-17T22:01:46.225Z,0.45
2022-09-17T22:04:21.476Z,0.32
2022-09-17T22:06:49.544Z,0.90
2022-09-17T22:09:23.665Z,0.45
2022-09-17T22:11:52.581Z,0.40
2022-09-17T22:16:52.312Z,0.50
2022-09-17T22:19:21.786Z,0.43
2022-09-17T22:21:51.767Z,0.32
2022-09-17T22:24:20.751Z,0.85
2022-09-17T22:26:55.790Z,0.60
2022-09-17T22:29:24.815Z,0.20
2022-09-17T22:31:52.100Z,0.10
2022-09-17T22:34:21.837Z,0.20
2022-09-17T22:36:49.195Z,0.40
2022-09-17T22:39:18.389Z,0.75
2022-09-17T22:41:46.180Z,0.60
2022-09-17T22:44:17.161Z,0.17
2022-09-17T22:46:47.298Z,0.65
2022-09-17T22:49:15.160Z,0.10
2022-09-17T22:51:43.954Z,0.43
2022-09-17T22:54:13.812Z,0.40
2022-09-17T22:56:41.427Z,0.15
2022-09-17T22:59:08.568Z,0.03
2022-09-17T23:01:36.716Z,0.28
2022-09-17T23:04:04.836Z,0.73
2022-09-17T23:06:35.639Z,0.10
2022-09-17T23:09:04.397Z,0.63
2022-09-17T23:11:34.956Z,0.45
2022-09-17T23:14:05.986Z,0.30
2022-09-17T23:16:43.313Z,0.20
2022-09-17T23:19:11.189Z,0.13
2022-09-17T23:21:39.183Z,0.15
2022-09-17T23:24:07.652Z,0.77
2022-09-17T23:26:35.019Z,0.22
2022-09-17T23:29:05.328Z,0.52
2022-09-17T23:31:36.346Z,0.32
2022-09-17T23:34:05.452Z,0.35
2022-09-17T23:36:38.888Z,0.30
2022-09-17T23:39:08.567Z,0.77
2022-09-17T23:41:39.912Z,0.38
2022-09-17T23:44:14.526Z,0.70
2022-09-17T23:46:42.881Z,0.60
2022-09-17T23:49:12.223Z,0.60
2022-09-17T23:51:39.356Z,0.47
2022-09-17T23:54:06.538Z,0.43
2022-09-17T23:56:34.770Z,0.35
2022-09-17T23:59:02.911Z,0.55
